Gilt Edge, Tennessee
Current Conditions -  °F | °C
As of 1:50 PM on Sunday 25 Jan 2015 (Local Time) from KNQA Reporting Station
Overcast Overcast  
Wind Chill: 54°   Ceiling: 3000
Heat Index: 54°   Visibility: 10mi
Dew Point: 45°   Wind: 8mph
Humidity: 72%   Direction: 220°SW
Pressure: 29.66"   Gusts: NA
Location:  35.5541°N, 89.8241°W
Report Text: KNQA 251950Z 22007KT 10SM BKN030 OVC045 12/07 A2966
Loading
Personal Weather Stations






























Interactive Weather Map New forecast layout! Learn more

10-Day Weather Forecast

Advertisements
Track Severe Weather on mobile